This is the latest recevied weather packets stored in our database for station/object AA0PB. If no packets are shown the sender has not sent any weather packets the latest 10 day(s).
| Time | Temp. | Humidity | Pressure | Rain* | Wind** | Luminosity | Snow |
|---|---|---|---|---|---|---|---|
| 1777490635 | 16.11° C | 58% | 1023.8 hPa | 0 mm | - | 676 W/m² | - |
| 1777490331 | 16.67° C | 58% | 1023.8 hPa | 0 mm | - | 680 W/m² | - |
| 1777490029 | 17.22° C | 57% | 1023.8 hPa | 0 mm | - | 674 W/m² | - |
| 1777489727 | 16.67° C | 57% | 1023.8 hPa | 0 mm | - | 675 W/m² | - |
| 1777489423 | 16.67° C | 57% | 1023.9 hPa | 0 mm | - | 667 W/m² | - |
| 1777489120 | 15.56° C | 59% | 1023.8 hPa | 0 mm | - | 656 W/m² | - |
| 1777488817 | 16.11° C | 58% | 1024.1 hPa | 0 mm | - | 651 W/m² | - |
| 1777488515 | 15.56° C | 59% | 1024 hPa | 0 mm | - | 649 W/m² | - |
| 1777488212 | 15° C | 61% | 1024.1 hPa | 0 mm | - | 645 W/m² | - |
| 1777487910 | 15.56° C | 58% | 1024.1 hPa | 0 mm | - | 630 W/m² | - |
| 1777487608 | 15.56° C | 59% | 1024.3 hPa | 0 mm | - | 629 W/m² | - |
| 1777487305 | 14.44° C | 63% | 1024.2 hPa | 0 mm | - | 623 W/m² | - |
| 1777487002 | 15° C | 61% | 1024.4 hPa | 0 mm | - | 620 W/m² | - |
| 1777486698 | 14.44° C | 61% | 1024.3 hPa | 0 mm | - | 610 W/m² | - |
| 1777486396 | 15° C | 61% | 1024.4 hPa | 0 mm | - | 602 W/m² | - |
| 1777486093 | 15° C | 60% | 1024.4 hPa | 0 mm | - | 592 W/m² | - |
| 1777485789 | 15° C | 60% | 1024.5 hPa | 0 mm | - | 597 W/m² | - |
| 1777485485 | 14.44° C | 60% | 1024.6 hPa | 0 mm | - | 581 W/m² | - |
| 1777485182 | 15° C | 61% | 1024.6 hPa | 0 mm | - | 572 W/m² | - |
| 1777484878 | 15° C | 60% | 1024.8 hPa | 0 mm | - | 564 W/m² | - |
| 1777484575 | 15° C | 60% | 1024.6 hPa | 0 mm | - | 556 W/m² | - |
| 1777484272 | 13.33° C | 62% | 1024.8 hPa | 0 mm | - | 545 W/m² | - |
| 1777483968 | 14.44° C | 60% | 1024.5 hPa | 0 mm | - | 535 W/m² | - |
| 1777483665 | 13.89° C | 62% | 1024.7 hPa | 0 mm | - | 525 W/m² | - |
| 1777483360 | 13.33° C | 62% | 1024.8 hPa | 0 mm | - | 516 W/m² | - |
* Rain latest hour (hover to see other rain measurements)
** Current wind speed in m/s (hover to see current wind gust speed)